createdAt,value
2023-01-30T00:00:02.366Z,78
2023-01-30T00:20:02.956Z,77
2023-01-30T00:40:03.002Z,77
2023-01-30T01:00:02.533Z,76
2023-01-30T01:20:02.295Z,76
2023-01-30T01:40:02.702Z,75
2023-01-30T02:00:02.875Z,75
2023-01-30T02:20:02.143Z,75
2023-01-30T02:40:02.333Z,76
2023-01-30T03:00:02.788Z,77
2023-01-30T03:20:02.415Z,78
2023-01-30T03:40:02.638Z,80
2023-01-30T04:00:03.009Z,81
2023-01-30T04:20:02.376Z,82
2023-01-30T04:40:02.755Z,82
2023-01-30T05:00:03.099Z,83
2023-01-30T05:20:02.746Z,83
2023-01-30T05:40:03.243Z,84
2023-01-30T06:00:02.632Z,85
2023-01-30T06:20:02.333Z,86
2023-01-30T06:40:02.775Z,86
2023-01-30T07:00:03.143Z,87
2023-01-30T07:20:02.615Z,88
2023-01-30T07:40:02.867Z,89
2023-01-30T08:00:03.398Z,89
2023-01-30T08:20:03.155Z,90
2023-01-30T08:40:02.473Z,91
2023-01-30T09:00:03.225Z,91
2023-01-30T09:20:03.424Z,92
2023-01-30T09:40:02.848Z,92
2023-01-30T10:00:03.449Z,94
2023-01-30T10:20:02.610Z,94
2023-01-30T10:40:03.016Z,93
2023-01-30T11:00:03.226Z,91
2023-01-30T11:20:02.913Z,86
2023-01-30T11:40:02.476Z,81
2023-01-30T12:00:03.409Z,78
2023-01-30T12:20:02.846Z,77
2023-01-30T12:40:03.300Z,76
2023-01-30T13:00:03.066Z,75
2023-01-30T13:20:02.898Z,73
2023-01-30T13:40:02.391Z,71
2023-01-30T14:00:03.154Z,69
2023-01-30T14:20:02.992Z,71
2023-01-30T14:40:02.648Z,75
2023-01-30T15:00:18.321Z,76
2023-01-30T15:20:02.683Z,76
2023-01-30T15:40:03.189Z,76
2023-01-30T16:00:02.727Z,77
2023-01-30T16:20:03.242Z,77
2023-01-30T16:40:02.724Z,77
2023-01-30T17:00:03.069Z,78
2023-01-30T17:20:02.954Z,80
2023-01-30T17:40:02.349Z,81
2023-01-30T18:00:03.152Z,81
2023-01-30T18:20:02.853Z,80
2023-01-30T18:40:02.197Z,79
2023-01-30T19:00:02.720Z,77
2023-01-30T19:20:02.359Z,73
2023-01-30T19:40:02.801Z,70
2023-01-30T20:00:03.396Z,69
2023-01-30T20:20:02.803Z,67
2023-01-30T20:40:03.795Z,67
2023-01-30T21:00:04.395Z,67
2023-01-30T21:20:02.859Z,68
2023-01-30T21:40:02.182Z,66
2023-01-30T22:00:02.590Z,65
2023-01-30T22:20:02.298Z,65
2023-01-30T22:40:02.858Z,64
2023-01-30T23:00:03.108Z,64
2023-01-30T23:20:02.286Z,65
2023-01-30T23:40:02.633Z,66
